Time;durP1;ratioP1;P1;durP2;ratioP2;P2;SDS_P1;SDS_P2;PMS_P1;PMS_P2;Temp;Humidity;BMP_temperature;BMP_pressure;BME280_temperature;BME280_humidity;BME280_pressure;Samples;Min_cycle;Max_cycle;Signal;HPM_P1;HPM_P2
2023/08/02 00:00:38;;;;;;;8.80;5.30;;;15.50;99.90;;;;;;5061052;28;20342;-70
2023/08/02 00:03:04;;;;;;;9.10;5.00;;;15.50;99.90;;;;;;5065596;28;20572;-70
2023/08/02 00:05:30;;;;;;;12.75;4.95;;;15.50;99.90;;;;;;5064207;28;20052;-70
2023/08/02 00:07:56;;;;;;;11.60;5.05;;;15.50;99.90;;;;;;5061749;28;20052;-70
2023/08/02 00:10:22;;;;;;;13.02;5.30;;;15.40;99.90;;;;;;5054697;28;20111;-70
2023/08/02 00:12:51;;;;;;;12.77;5.53;;;15.40;99.90;;;;;;5053352;28;20029;-70
2023/08/02 00:15:17;;;;;;;19.05;5.28;;;15.40;99.90;;;;;;5051279;28;20071;-70
2023/08/02 00:17:42;;;;;;;14.88;5.57;;;15.40;99.90;;;;;;5051159;28;20044;-70
2023/08/02 00:20:08;;;;;;;11.65;5.78;;;15.40;99.90;;;;;;5063495;28;20044;-70
2023/08/02 00:22:34;;;;;;;10.00;5.10;;;15.40;99.90;;;;;;5064248;28;20921;-70
2023/08/02 00:25:00;;;;;;;12.70;5.80;;;15.40;99.90;;;;;;5064372;28;20033;-70
2023/08/02 00:27:25;;;;;;;10.23;5.43;;;15.40;99.90;;;;;;5066172;28;20033;-70
2023/08/02 00:29:51;;;;;;;13.38;5.93;;;15.40;99.90;;;;;;5064680;28;20041;-70
2023/08/02 00:32:18;;;;;;;10.57;5.43;;;15.40;99.90;;;;;;5061259;28;20123;-70
2023/08/02 00:34:44;;;;;;;14.27;6.05;;;15.40;99.90;;;;;;5057693;28;20049;-70
2023/08/02 00:37:09;;;;;;;12.32;5.78;;;15.40;99.90;;;;;;5064616;28;20119;-70
2023/08/02 00:39:35;;;;;;;12.75;5.75;;;15.50;99.90;;;;;;5062628;28;20121;-70
2023/08/02 00:42:01;;;;;;;14.20;6.15;;;15.50;99.90;;;;;;5047562;28;20036;-70
2023/08/02 00:44:26;;;;;;;16.70;6.03;;;15.50;99.90;;;;;;5061283;28;20452;-70
2023/08/02 00:46:53;;;;;;;13.68;5.68;;;15.50;99.90;;;;;;5064715;28;20072;-70
2023/08/02 00:49:18;;;;;;;14.05;5.75;;;15.50;99.90;;;;;;5050334;28;20041;-70
2023/08/02 00:51:44;;;;;;;13.63;5.63;;;15.50;99.90;;;;;;5061767;28;20039;-70
2023/08/02 00:54:10;;;;;;;10.07;5.85;;;15.40;99.90;;;;;;5064736;28;20082;-70
2023/08/02 00:56:36;;;;;;;9.27;5.65;;;15.50;99.90;;;;;;5062108;28;20674;-70
2023/08/02 00:59:02;;;;;;;10.25;5.32;;;15.40;99.90;;;;;;5047316;28;20372;-70
2023/08/02 01:01:28;;;;;;;17.63;5.78;;;15.40;99.90;;;;;;5059850;28;20098;-70
2023/08/02 01:03:54;;;;;;;11.23;5.60;;;15.40;99.90;;;;;;5064458;28;20540;-70
2023/08/02 01:06:26;;;;;;;14.13;5.50;;;15.40;99.90;;;;;;5066939;28;20036;-70
2023/08/02 01:09:01;;;;;;;11.07;5.82;;;15.40;99.90;;;;;;5055536;28;20048;-70
2023/08/02 01:11:38;;;;;;;14.23;6.20;;;15.40;99.90;;;;;;5064228;28;20040;-70
2023/08/02 01:14:05;;;;;;;13.00;5.47;;;15.40;99.90;;;;;;5063753;28;20048;-71
2023/08/02 01:16:33;;;;;;;21.10;6.38;;;15.40;99.90;;;;;;5043340;28;20045;-71
2023/08/02 01:19:07;;;;;;;13.90;5.80;;;15.40;99.90;;;;;;5064365;28;20040;-71
2023/08/02 01:21:33;;;;;;;13.05;5.65;;;15.40;99.90;;;;;;5067207;28;20048;-71
2023/08/02 01:23:58;;;;;;;14.68;5.72;;;15.40;99.90;;;;;;5059756;28;20040;-70
2023/08/02 01:26:27;;;;;;;17.75;5.95;;;15.40;99.90;;;;;;5044055;28;20033;-70
2023/08/02 01:28:55;;;;;;;14.13;6.10;;;15.40;99.90;;;;;;5055627;28;20917;-71
2023/08/02 01:31:22;;;;;;;16.40;6.13;;;15.40;99.90;;;;;;5062429;28;20041;-71
2023/08/02 01:33:52;;;;;;;17.40;6.05;;;15.40;99.90;;;;;;5064348;28;20162;-71
2023/08/02 01:36:18;;;;;;;12.98;5.60;;;15.40;99.90;;;;;;5045085;28;20064;-71
2023/08/02 01:38:44;;;;;;;13.07;5.57;;;15.40;99.90;;;;;;5054892;28;20040;-70
2023/08/02 01:41:09;;;;;;;11.93;5.63;;;15.40;99.90;;;;;;5060428;28;20097;-70
2023/08/02 01:43:35;;;;;;;15.95;5.93;;;15.40;99.90;;;;;;5050020;28;20045;-70
2023/08/02 01:46:01;;;;;;;15.95;6.13;;;15.40;99.90;;;;;;5064926;28;20398;-71
2023/08/02 01:48:26;;;;;;;13.27;5.68;;;15.40;99.90;;;;;;5068499;28;20489;-70
2023/08/02 01:50:52;;;;;;;13.05;6.00;;;15.40;99.90;;;;;;5049338;28;20096;-71
2023/08/02 01:53:18;;;;;;;14.48;6.00;;;15.40;99.90;;;;;;5059415;28;20036;-70
2023/08/02 01:55:44;;;;;;;13.90;5.82;;;15.30;99.90;;;;;;5061102;28;20044;-70
2023/08/02 01:58:09;;;;;;;17.83;5.95;;;15.30;99.90;;;;;;5061729;28;20067;-70
2023/08/02 02:00:35;;;;;;;13.48;7.35;;;15.30;99.90;;;;;;5048137;28;20051;-70
2023/08/02 02:03:01;;;;;;;15.80;6.68;;;15.30;99.90;;;;;;5059407;28;20040;-70
2023/08/02 02:05:26;;;;;;;19.58;6.55;;;15.30;99.90;;;;;;5062899;28;20040;-70
2023/08/02 02:07:52;;;;;;;21.13;6.55;;;15.30;99.90;;;;;;5058645;28;20082;-70
2023/08/02 02:10:17;;;;;;;18.27;6.40;;;15.20;99.90;;;;;;5046025;28;20048;-70
2023/08/02 02:12:43;;;;;;;14.02;6.25;;;15.30;99.90;;;;;;5061410;28;20072;-70
2023/08/02 02:15:09;;;;;;;15.48;6.40;;;15.20;99.90;;;;;;5063860;28;20063;-70
2023/08/02 02:17:34;;;;;;;18.15;6.03;;;15.20;99.90;;;;;;5050951;28;20036;-70
2023/08/02 02:20:00;;;;;;;19.73;6.53;;;15.20;99.90;;;;;;5057022;28;20033;-70
2023/08/02 02:22:26;;;;;;;21.95;6.43;;;15.10;99.90;;;;;;5063132;28;20044;-71
2023/08/02 02:24:51;;;;;;;22.92;6.40;;;15.10;99.90;;;;;;5053131;28;20048;-70
2023/08/02 02:27:17;;;;;;;16.60;6.25;;;15.10;99.90;;;;;;5054343;28;20063;-70
2023/08/02 02:29:42;;;;;;;22.73;6.93;;;15.10;99.90;;;;;;5069215;28;20044;-70
2023/08/02 02:32:08;;;;;;;19.90;6.05;;;15.10;99.90;;;;;;5061946;28;20411;-70
2023/08/02 02:34:33;;;;;;;21.48;6.90;;;15.00;99.90;;;;;;5058222;28;20076;-70
2023/08/02 02:36:59;;;;;;;13.52;6.10;;;15.00;99.90;;;;;;5062700;28;20102;-69
2023/08/02 02:39:25;;;;;;;19.80;6.50;;;15.00;99.90;;;;;;5061228;28;20044;-70
2023/08/02 02:41:50;;;;;;;17.05;6.07;;;14.90;99.90;;;;;;5062227;28;20067;-71
2023/08/02 02:44:16;;;;;;;15.23;6.50;;;14.80;99.90;;;;;;5058534;28;20079;-70
2023/08/02 02:46:42;;;;;;;15.73;6.80;;;14.80;99.90;;;;;;5060991;28;20083;-70
2023/08/02 02:49:07;;;;;;;17.65;7.40;;;14.70;99.90;;;;;;5057956;28;20037;-71
2023/08/02 02:51:33;;;;;;;18.45;7.47;;;14.70;99.90;;;;;;5049200;28;20076;-70
2023/08/02 02:53:58;;;;;;;13.52;7.03;;;14.70;99.90;;;;;;5061539;28;20402;-70
2023/08/02 02:56:24;;;;;;;20.92;6.90;;;14.70;99.90;;;;;;5063487;28;20114;-70
2023/08/02 02:58:50;;;;;;;17.17;7.47;;;14.60;99.90;;;;;;5058804;28;20868;-70
2023/08/02 03:01:15;;;;;;;12.73;6.80;;;14.60;99.90;;;;;;5054250;28;20040;-70
2023/08/02 03:03:41;;;;;;;17.52;7.28;;;14.60;99.90;;;;;;5062482;28;20055;-70
2023/08/02 03:06:07;;;;;;;17.10;7.00;;;14.60;99.90;;;;;;5055918;28;20060;-70
2023/08/02 03:08:32;;;;;;;16.23;8.25;;;14.60;99.90;;;;;;5053870;28;20041;-70
2023/08/02 03:10:58;;;;;;;18.33;7.70;;;14.60;99.90;;;;;;5065653;28;20032;-70
2023/08/02 03:13:23;;;;;;;18.65;7.57;;;14.60;99.90;;;;;;5066463;28;20127;-70
2023/08/02 03:15:49;;;;;;;16.33;7.22;;;14.60;99.90;;;;;;5056638;28;20111;-70
2023/08/02 03:18:15;;;;;;;17.90;7.65;;;14.50;99.90;;;;;;5064775;28;20198;-71
2023/08/02 03:20:42;;;;;;;16.35;7.28;;;14.50;99.90;;;;;;5064634;28;20107;-70
2023/08/02 03:23:08;;;;;;;17.85;7.35;;;14.50;99.90;;;;;;5063137;28;20170;-71
2023/08/02 03:25:35;;;;;;;15.35;7.07;;;14.50;99.90;;;;;;5058190;28;20512;-71
2023/08/02 03:28:01;;;;;;;19.33;7.45;;;14.40;99.90;;;;;;5065367;28;20040;-71
2023/08/02 03:30:26;;;;;;;16.58;7.78;;;14.40;99.90;;;;;;5065496;28;20039;-70
2023/08/02 03:32:52;;;;;;;19.80;7.93;;;14.40;99.90;;;;;;5060991;28;20029;-70
2023/08/02 03:35:18;;;;;;;17.00;7.50;;;14.40;99.90;;;;;;5064662;28;20044;-70
2023/08/02 03:37:43;;;;;;;25.67;7.43;;;14.40;99.90;;;;;;5062251;28;20036;-71
2023/08/02 03:40:09;;;;;;;17.95;7.75;;;14.50;99.90;;;;;;5044373;28;20434;-70
2023/08/02 03:42:35;;;;;;;16.55;7.22;;;14.40;99.90;;;;;;5059405;28;20072;-70
2023/08/02 03:45:02;;;;;;;14.70;7.35;;;14.40;99.90;;;;;;5056870;28;20072;-71
2023/08/02 03:47:28;;;;;;;17.83;8.00;;;14.40;99.90;;;;;;5054177;28;20036;-71
2023/08/02 03:49:54;;;;;;;16.95;8.10;;;14.40;99.90;;;;;;5065903;28;20049;-71
2023/08/02 03:52:19;;;;;;;15.18;7.60;;;14.40;99.90;;;;;;5066370;28;20048;-70
2023/08/02 03:54:45;;;;;;;18.98;8.50;;;14.30;99.90;;;;;;5060973;28;20115;-70
2023/08/02 03:57:11;;;;;;;21.98;8.38;;;14.40;99.90;;;;;;5059342;28;20426;-70
2023/08/02 03:59:36;;;;;;;15.55;7.68;;;14.40;99.90;;;;;;5060234;28;20037;-70
2023/08/02 04:02:02;;;;;;;19.02;8.35;;;14.40;99.90;;;;;;5064661;28;20075;-70
2023/08/02 04:04:27;;;;;;;18.20;7.85;;;14.40;99.90;;;;;;5065289;28;20147;-70
2023/08/02 04:06:53;;;;;;;22.17;8.60;;;14.40;99.90;;;;;;5058400;28;20037;-70
2023/08/02 04:09:19;;;;;;;20.98;8.07;;;14.40;99.90;;;;;;5052981;28;20090;-70
2023/08/02 04:11:44;;;;;;;14.52;8.23;;;14.40;99.90;;;;;;5066298;28;20499;-70
2023/08/02 04:14:10;;;;;;;20.92;8.07;;;14.40;99.90;;;;;;5054431;28;20043;-70
2023/08/02 04:16:35;;;;;;;14.73;7.70;;;14.40;99.90;;;;;;5059246;28;20109;-70
2023/08/02 04:19:01;;;;;;;21.42;7.90;;;14.30;99.90;;;;;;5064385;28;20116;-70
2023/08/02 04:21:27;;;;;;;20.50;7.80;;;14.30;99.90;;;;;;5059545;28;20037;-71
2023/08/02 04:23:52;;;;;;;17.70;7.63;;;14.30;99.90;;;;;;5055265;28;20043;-70
2023/08/02 04:26:18;;;;;;;19.48;8.20;;;14.30;99.90;;;;;;5065049;28;20444;-70
2023/08/02 04:28:45;;;;;;;18.90;8.00;;;14.30;99.90;;;;;;5058796;28;20090;-70
2023/08/02 04:31:12;;;;;;;15.25;7.63;;;14.30;99.90;;;;;;5058969;28;20121;-70
2023/08/02 04:33:37;;;;;;;17.65;7.90;;;14.40;99.90;;;;;;5056686;28;20471;-70
2023/08/02 04:36:03;;;;;;;17.75;7.38;;;14.40;99.90;;;;;;5065832;28;20119;-70
2023/08/02 04:38:29;;;;;;;20.25;8.10;;;14.40;99.90;;;;;;5051864;28;20048;-70
2023/08/02 04:40:55;;;;;;;17.08;7.35;;;14.40;99.90;;;;;;5060636;28;20055;-69
2023/08/02 04:43:21;;;;;;;19.77;7.90;;;14.40;99.90;;;;;;5065752;28;20533;-70
2023/08/02 04:45:47;;;;;;;20.85;7.88;;;14.50;99.90;;;;;;5053354;28;20517;-71
2023/08/02 04:48:12;;;;;;;15.88;7.90;;;14.50;99.90;;;;;;5053752;28;20039;-71
2023/08/02 04:50:38;;;;;;;17.45;8.30;;;14.50;99.90;;;;;;5064809;28;20482;-70
2023/08/02 04:53:04;;;;;;;19.02;8.55;;;14.50;99.90;;;;;;5065457;28;20120;-70
2023/08/02 04:55:29;;;;;;;16.10;7.72;;;14.60;99.90;;;;;;5060491;28;20438;-71
2023/08/02 04:57:55;;;;;;;19.42;8.48;;;14.60;99.90;;;;;;5057296;28;20041;-70
2023/08/02 05:00:21;;;;;;;16.55;8.15;;;14.60;99.90;;;;;;5055086;28;20036;-70
2023/08/02 05:02:47;;;;;;;18.38;7.20;;;14.70;99.90;;;;;;5062866;28;20045;-70
2023/08/02 05:05:12;;;;;;;16.48;7.82;;;14.80;99.90;;;;;;5057375;28;20158;-70
2023/08/02 05:07:39;;;;;;;20.30;7.88;;;14.80;99.90;;;;;;5062479;28;20110;-70
2023/08/02 05:10:05;;;;;;;12.93;7.63;;;14.90;99.90;;;;;;5064524;28;20136;-70
2023/08/02 05:12:34;;;;;;;12.80;7.15;;;14.90;99.90;;;;;;5054842;28;20133;-70
2023/08/02 05:15:00;;;;;;;19.20;7.35;;;14.90;99.90;;;;;;5063723;28;20453;-70
2023/08/02 05:17:29;;;;;;;18.00;7.25;;;15.00;99.90;;;;;;5086525;28;20044;-70
2023/08/02 05:19:55;;;;;;;16.55;7.22;;;15.00;99.90;;;;;;5060688;28;20040;-70
2023/08/02 05:22:20;;;;;;;17.75;7.82;;;15.00;99.90;;;;;;5062888;28;20059;-70
2023/08/02 05:24:46;;;;;;;21.60;7.40;;;15.10;99.90;;;;;;5063161;28;20106;-70
2023/08/02 05:27:11;;;;;;;13.52;7.20;;;15.10;99.90;;;;;;5065245;28;20514;-71
2023/08/02 05:29:37;;;;;;;15.52;6.88;;;15.20;99.90;;;;;;5059752;28;20097;-70
2023/08/02 05:32:03;;;;;;;15.35;6.80;;;15.20;99.90;;;;;;5068668;28;20028;-71
2023/08/02 05:34:29;;;;;;;17.92;7.95;;;15.20;99.90;;;;;;5070878;28;20406;-71
2023/08/02 05:36:54;;;;;;;14.30;7.47;;;15.20;99.90;;;;;;5059139;28;20068;-70
2023/08/02 05:39:20;;;;;;;14.57;6.82;;;15.30;99.90;;;;;;5063461;28;20032;-70
2023/08/02 05:41:45;;;;;;;14.43;7.25;;;15.30;99.90;;;;;;5067687;28;20052;-71
2023/08/02 05:44:11;;;;;;;19.52;7.30;;;15.50;99.90;;;;;;5057791;28;20032;-71
2023/08/02 05:46:36;;;;;;;15.20;7.32;;;15.70;99.90;;;;;;5068725;28;20436;-71
2023/08/02 05:49:02;;;;;;;17.30;6.65;;;15.70;99.90;;;;;;5071187;28;20128;-70
2023/08/02 05:51:28;;;;;;;14.10;6.47;;;15.80;99.90;;;;;;5050757;28;20037;-70
2023/08/02 05:53:53;;;;;;;13.82;6.88;;;15.90;99.90;;;;;;5052519;28;20091;-70
2023/08/02 05:56:19;;;;;;;14.75;6.47;;;16.00;99.90;;;;;;5056868;28;20475;-70
2023/08/02 05:58:44;;;;;;;13.63;5.88;;;16.10;99.90;;;;;;5044352;28;20036;-70
2023/08/02 06:01:10;;;;;;;12.95;6.18;;;16.10;99.90;;;;;;5056691;28;20093;-70
2023/08/02 06:03:36;;;;;;;11.18;5.63;;;16.20;99.90;;;;;;5061898;28;20045;-70
2023/08/02 06:06:02;;;;;;;11.05;5.65;;;16.20;99.90;;;;;;5060373;28;20664;-70
2023/08/02 06:08:28;;;;;;;13.82;5.97;;;16.30;99.90;;;;;;5055193;28;20039;-71
2023/08/02 06:10:54;;;;;;;14.60;5.68;;;16.30;99.90;;;;;;5060588;28;20067;-71
2023/08/02 06:13:20;;;;;;;12.57;5.47;;;16.40;99.90;;;;;;5058465;28;20094;-71
2023/08/02 06:15:46;;;;;;;16.67;5.75;;;16.40;99.90;;;;;;5063545;28;20490;-70
2023/08/02 06:18:11;;;;;;;10.10;5.65;;;16.50;99.90;;;;;;5042866;28;20384;-71
2023/08/02 06:20:37;;;;;;;12.30;5.18;;;16.40;99.90;;;;;;5061596;28;20101;-70
2023/08/02 06:23:04;;;;;;;9.20;5.18;;;16.50;99.90;;;;;;5064500;28;20091;-70
2023/08/02 06:25:31;;;;;;;13.10;5.93;;;16.50;99.90;;;;;;5071405;28;20048;-70
2023/08/02 06:27:56;;;;;;;15.30;5.65;;;16.60;99.90;;;;;;5065124;28;20043;-70
2023/08/02 06:30:22;;;;;;;13.95;6.00;;;16.60;99.90;;;;;;5063689;28;20036;-71
2023/08/02 06:32:47;;;;;;;12.25;5.70;;;16.60;99.90;;;;;;5064123;28;20048;-71
2023/08/02 06:35:13;;;;;;;19.10;6.85;;;16.60;99.90;;;;;;5064627;28;20032;-71
2023/08/02 06:37:39;;;;;;;11.07;5.38;;;16.60;99.90;;;;;;5053647;28;20321;-70
2023/08/02 06:40:05;;;;;;;15.75;5.45;;;16.70;99.90;;;;;;5057570;28;20043;-70
2023/08/02 06:42:31;;;;;;;12.35;5.20;;;16.70;99.90;;;;;;5061783;28;20052;-70
2023/08/02 06:44:57;;;;;;;11.90;5.28;;;16.70;99.90;;;;;;5049551;28;20383;-70
2023/08/02 06:47:23;;;;;;;15.05;5.65;;;16.60;99.90;;;;;;5062299;28;20041;-70
2023/08/02 06:49:48;;;;;;;10.73;5.18;;;16.50;99.90;;;;;;5063141;28;20465;-70
2023/08/02 06:52:14;;;;;;;11.43;5.45;;;16.60;99.90;;;;;;5058212;28;20055;-70
2023/08/02 06:54:40;;;;;;;11.88;5.05;;;16.50;99.90;;;;;;5050107;28;20497;-71
2023/08/02 06:57:06;;;;;;;18.63;7.13;;;16.50;99.90;;;;;;5068407;28;20040;-70
2023/08/02 06:59:31;;;;;;;10.57;4.80;;;16.40;99.90;;;;;;5076702;28;20052;-70
2023/08/02 07:01:57;;;;;;;10.18;4.60;;;16.40;99.90;;;;;;5043099;28;20040;-70
2023/08/02 07:04:22;;;;;;;14.82;5.03;;;16.40;99.90;;;;;;5064868;28;20036;-70
2023/08/02 07:06:48;;;;;;;8.60;4.90;;;16.40;99.90;;;;;;5055464;28;20044;-70
2023/08/02 07:09:14;;;;;;;13.77;5.07;;;16.40;99.90;;;;;;5054315;28;20047;-70
2023/08/02 07:11:40;;;;;;;13.27;5.35;;;16.50;99.90;;;;;;5060724;28;20052;-70
2023/08/02 07:14:06;;;;;;;9.57;4.70;;;16.60;99.90;;;;;;5062783;28;20053;-70
2023/08/02 07:16:32;;;;;;;10.27;4.32;;;16.60;99.90;;;;;;5051476;28;20033;-71
2023/08/02 07:19:02;;;;;;;9.52;4.15;;;16.70;99.90;;;;;;5052311;28;20032;-70
2023/08/02 07:21:29;;;;;;;10.32;5.00;;;16.60;99.90;;;;;;5060753;28;20510;-71
2023/08/02 07:23:55;;;;;;;8.57;4.00;;;16.60;99.90;;;;;;5063945;28;20082;-71
2023/08/02 07:26:22;;;;;;;10.88;4.30;;;16.50;99.90;;;;;;5061566;28;20470;-71
2023/08/02 07:28:48;;;;;;;9.95;4.35;;;16.50;99.90;;;;;;5060924;28;20040;-71
2023/08/02 07:31:14;;;;;;;8.40;4.07;;;16.50;99.90;;;;;;5060539;28;20044;-70
2023/08/02 07:33:40;;;;;;;9.35;3.90;;;16.40;99.90;;;;;;5055356;28;20144;-70
2023/08/02 07:36:16;;;;;;;7.70;3.58;;;16.30;99.90;;;;;;5056667;28;20028;-70
2023/08/02 07:38:43;;;;;;;9.30;4.30;;;16.30;99.90;;;;;;5060983;28;20048;-70
2023/08/02 07:41:08;;;;;;;7.80;3.53;;;16.20;99.90;;;;;;5080785;22;20049;-68
2023/08/02 07:43:34;;;;;;;15.88;4.68;;;16.10;99.90;;;;;;5051885;28;20155;-68
2023/08/02 07:45:59;;;;;;;11.30;4.00;;;16.10;99.90;;;;;;5061818;28;20036;-68
2023/08/02 07:48:25;;;;;;;8.25;4.10;;;16.10;99.90;;;;;;5062437;28;20049;-68
2023/08/02 07:50:51;;;;;;;7.47;3.90;;;16.00;99.90;;;;;;5046544;28;20033;-68
2023/08/02 07:53:16;;;;;;;9.43;4.38;;;16.00;99.90;;;;;;5049154;28;20060;-70
2023/08/02 07:55:42;;;;;;;9.88;4.35;;;16.00;99.90;;;;;;5057903;28;20394;-71
2023/08/02 07:58:08;;;;;;;13.70;4.80;;;15.90;99.90;;;;;;5057548;28;20031;-71
2023/08/02 08:00:33;;;;;;;11.45;4.20;;;15.90;99.90;;;;;;5071210;28;20032;-71
2023/08/02 08:02:59;;;;;;;10.45;4.68;;;15.90;99.90;;;;;;5063778;28;20048;-72
2023/08/02 08:05:27;;;;;;;8.38;4.18;;;15.80;99.90;;;;;;5052231;28;20119;-70
2023/08/02 08:07:53;;;;;;;14.00;5.90;;;15.80;99.90;;;;;;5055780;28;20048;-70
2023/08/02 08:10:19;;;;;;;13.65;4.88;;;15.80;99.90;;;;;;5063175;28;20067;-70
2023/08/02 08:12:44;;;;;;;10.23;4.75;;;15.90;99.90;;;;;;5064106;28;20086;-71
2023/08/02 08:15:10;;;;;;;11.00;4.63;;;16.00;99.90;;;;;;5060622;28;20035;-70
2023/08/02 08:17:35;;;;;;;14.68;5.07;;;16.00;99.90;;;;;;5061882;28;20052;-70
2023/08/02 08:20:05;;;;;;;14.43;5.15;;;16.10;99.90;;;;;;5066597;28;20036;-70
2023/08/02 08:22:30;;;;;;;8.63;4.90;;;16.10;99.90;;;;;;5065646;28;20510;-71
2023/08/02 08:24:56;;;;;;;15.68;5.50;;;16.20;99.90;;;;;;5051710;28;20055;-70
2023/08/02 08:27:22;;;;;;;11.82;5.47;;;16.30;99.90;;;;;;5060244;28;20036;-70
2023/08/02 08:29:47;;;;;;;11.27;4.93;;;16.30;99.90;;;;;;5050514;28;20072;-71
2023/08/02 08:32:13;;;;;;;11.18;5.30;;;16.30;99.90;;;;;;5058687;28;20433;-70
2023/08/02 08:34:39;;;;;;;10.40;4.57;;;16.50;99.90;;;;;;5066082;28;20076;-70
2023/08/02 08:37:04;;;;;;;10.88;5.40;;;16.60;99.90;;;;;;5056665;28;20037;-70
2023/08/02 08:39:30;;;;;;;13.85;5.50;;;16.60;99.90;;;;;;5052150;28;20132;-71
2023/08/02 08:41:59;;;;;;;12.13;6.28;;;16.80;99.90;;;;;;5045750;28;20033;-70
2023/08/02 08:44:25;;;;;;;10.90;5.80;;;16.90;99.90;;;;;;5060154;28;20036;-70
2023/08/02 08:46:52;;;;;;;12.00;5.93;;;17.00;99.90;;;;;;5071946;28;20051;-71
2023/08/02 08:49:17;;;;;;;11.68;5.65;;;17.00;99.90;;;;;;5059838;28;20041;-70
2023/08/02 08:51:49;;;;;;;14.23;5.72;;;16.90;99.90;;;;;;5061490;28;20045;-70
2023/08/02 08:54:23;;;;;;;10.98;4.93;;;16.90;99.90;;;;;;5068699;28;20040;-71
2023/08/02 08:56:49;;;;;;;11.90;5.43;;;16.80;99.90;;;;;;5062679;28;20036;-70
2023/08/02 08:59:15;;;;;;;8.85;5.07;;;16.70;99.90;;;;;;5055227;28;20760;-70
2023/08/02 09:01:43;;;;;;;9.13;5.40;;;16.60;99.90;;;;;;5062082;28;20886;-70
2023/08/02 09:04:08;;;;;;;13.38;5.80;;;16.60;99.90;;;;;;5063196;28;20055;-70
2023/08/02 09:06:35;;;;;;;11.88;5.60;;;16.50;99.90;;;;;;5061443;28;20040;-70
2023/08/02 09:09:02;;;;;;;10.48;6.25;;;16.50;99.90;;;;;;5045218;28;20044;-70
2023/08/02 09:11:29;;;;;;;12.80;6.28;;;16.50;99.90;;;;;;5067004;28;20509;-71
2023/08/02 09:14:15;;;;;;;11.05;6.30;;;16.70;99.90;;;;;;5064525;28;20135;-71
2023/08/02 09:17:02;;;;;;;13.88;6.40;;;16.80;99.90;;;;;;5065663;28;20041;-71
2023/08/02 09:19:33;;;;;;;14.45;6.55;;;16.90;99.90;;;;;;5071060;28;20041;-71
2023/08/02 09:22:09;;;;;;;;;;;16.90;99.90;;;;;;5065609;28;20036;-70
2023/08/02 09:24:36;;;;;;;10.05;6.78;;;16.90;99.90;;;;;;5051290;28;19939;-71
2023/08/02 09:27:04;;;;;;;12.07;6.20;;;17.00;99.90;;;;;;5065432;28;20372;-71
2023/08/02 09:29:45;;;;;;;12.73;6.15;;;17.00;99.90;;;;;;5064021;28;20055;-70
2023/08/02 09:32:12;;;;;;;13.27;6.32;;;16.90;99.90;;;;;;5048335;28;20047;-70
2023/08/02 09:34:46;;;;;;;11.88;6.25;;;16.80;99.90;;;;;;5050409;28;20037;-71
2023/08/02 09:37:16;;;;;;;9.85;6.32;;;16.80;99.90;;;;;;5057060;28;20033;-70
2023/08/02 09:39:50;;;;;;;10.38;6.43;;;16.80;99.90;;;;;;5065923;28;20044;-71
2023/08/02 09:42:17;;;;;;;12.43;6.55;;;16.80;99.90;;;;;;5055990;28;20125;-70
2023/08/02 09:44:51;;;;;;;10.23;6.43;;;16.80;99.90;;;;;;5062448;28;20128;-69
2023/08/02 09:47:18;;;;;;;9.73;6.30;;;16.80;99.90;;;;;;5067532;28;20044;-70
2023/08/02 09:49:44;;;;;;;7.78;5.65;;;16.80;99.90;;;;;;5070237;28;20486;-71
2023/08/02 09:52:09;;;;;;;10.10;6.30;;;16.90;99.90;;;;;;5067149;28;20047;-70
2023/08/02 09:54:35;;;;;;;9.68;5.68;;;16.90;99.90;;;;;;5061937;28;20044;-70
2023/08/02 09:57:02;;;;;;;7.03;5.22;;;16.90;99.90;;;;;;5050839;28;20058;-70
2023/08/02 09:59:30;;;;;;;7.85;5.32;;;17.00;99.90;;;;;;5057777;28;20102;-71
2023/08/02 10:01:57;;;;;;;7.85;5.22;;;17.00;99.90;;;;;;5059352;28;20059;-71
2023/08/02 10:04:25;;;;;;;7.32;4.90;;;17.00;99.90;;;;;;5053545;28;20080;-71
2023/08/02 10:06:58;;;;;;;7.72;4.45;;;17.00;99.90;;;;;;5053503;28;20053;-71
2023/08/02 10:09:30;;;;;;;6.90;4.95;;;17.10;99.90;;;;;;5066890;28;20048;-71
2023/08/02 10:12:02;;;;;;;7.05;4.60;;;17.10;99.90;;;;;;5056249;28;20124;-71
2023/08/02 10:14:29;;;;;;;;;;;17.10;99.90;;;;;;5060073;28;20047;-69
2023/08/02 10:16:58;;;;;;;5.68;4.15;;;17.20;99.90;;;;;;5060529;28;20389;-70
2023/08/02 10:19:24;;;;;;;6.47;4.35;;;17.20;99.90;;;;;;5060308;28;20033;-69
2023/08/02 10:21:51;;;;;;;5.28;3.72;;;17.30;99.90;;;;;;5055066;28;20044;-70
2023/08/02 10:24:17;;;;;;;6.40;3.90;;;17.40;99.90;;;;;;5068986;28;20032;-70
2023/08/02 10:26:43;;;;;;;5.07;3.58;;;17.50;99.90;;;;;;5070316;28;20540;-71
2023/08/02 10:29:09;;;;;;;5.05;3.45;;;17.50;99.90;;;;;;5066849;28;20654;-71
2023/08/02 10:31:35;;;;;;;4.35;3.20;;;17.50;99.90;;;;;;5067796;28;20063;-70
2023/08/02 10:34:02;;;;;;;5.45;3.05;;;17.40;99.90;;;;;;5062180;28;20060;-71
2023/08/02 10:36:54;;;;;;;4.47;2.95;;;17.40;99.90;;;;;;5066665;28;20048;-70
2023/08/02 10:39:39;;;;;;;6.20;2.83;;;17.40;99.90;;;;;;5058261;28;20087;-69
2023/08/02 10:42:05;;;;;;;4.80;3.03;;;17.50;99.90;;;;;;5062409;28;20044;-70
2023/08/02 10:44:33;;;;;;;4.55;2.97;;;17.60;99.90;;;;;;5062193;28;20055;-70
2023/08/02 10:47:30;;;;;;;4.32;3.10;;;17.70;99.90;;;;;;5052452;28;20036;-69
2023/08/02 10:49:57;;;;;;;3.80;2.60;;;17.60;99.90;;;;;;5054276;28;20109;-71
2023/08/02 10:52:31;;;;;;;4.65;2.58;;;17.60;99.90;;;;;;5065739;28;20498;-71
2023/08/02 10:55:18;;;;;;;5.55;3.28;;;17.60;99.90;;;;;;5057779;28;20066;-71
2023/08/02 10:57:56;;;;;;;4.20;3.15;;;17.80;99.90;;;;;;5067558;28;20040;-71
2023/08/02 11:00:29;;;;;;;4.05;2.63;;;18.00;99.90;;;;;;5061827;28;20074;-69
2023/08/02 11:02:55;;;;;;;4.53;2.90;;;18.10;99.90;;;;;;5048023;28;20990;-71
2023/08/02 11:05:36;;;;;;;3.95;2.40;;;18.20;99.90;;;;;;5059179;28;20072;-70
2023/08/02 11:08:02;;;;;;;3.80;2.40;;;18.10;99.90;;;;;;5044367;28;20111;-70
2023/08/02 11:10:28;;;;;;;3.28;2.40;;;18.10;99.90;;;;;;5049967;28;20762;-70
2023/08/02 11:12:55;;;;;;;4.25;2.30;;;18.10;99.90;;;;;;5045376;28;20036;-69
2023/08/02 11:15:22;;;;;;;4.25;2.70;;;18.10;99.90;;;;;;5043370;28;20041;-70
2023/08/02 11:17:57;;;;;;;4.50;3.20;;;18.30;99.90;;;;;;5050904;28;20064;-69
2023/08/02 11:20:25;;;;;;;3.42;2.90;;;18.40;99.90;;;;;;5058021;28;20116;-69
2023/08/02 11:22:51;;;;;;;4.88;2.92;;;18.40;99.90;;;;;;5053795;28;20072;-69
2023/08/02 11:25:20;;;;;;;3.35;2.78;;;18.50;99.90;;;;;;5045837;28;20098;-70
2023/08/02 11:27:47;;;;;;;4.90;2.40;;;18.50;99.90;;;;;;5050010;28;20044;-70
2023/08/02 11:30:12;;;;;;;3.72;2.90;;;18.50;99.90;;;;;;5064616;28;20070;-69
2023/08/02 11:32:46;;;;;;;5.25;3.10;;;18.50;99.90;;;;;;5065768;28;20151;-70
2023/08/02 11:35:16;;;;;;;4.90;4.15;;;18.70;99.90;;;;;;5066405;28;20111;-70
2023/08/02 11:37:42;;;;;;;4.43;3.80;;;18.90;99.90;;;;;;5052274;28;20045;-70
2023/08/02 11:40:09;;;;;;;4.93;3.75;;;19.30;99.90;;;;;;5064479;28;20043;-69
2023/08/02 11:42:50;;;;;;;4.40;4.00;;;19.60;99.90;;;;;;5065740;28;20052;-69
2023/08/02 11:45:28;;;;;;;4.38;3.97;;;19.80;99.90;;;;;;5061461;28;20041;-70
2023/08/02 11:47:53;;;;;;;5.18;3.90;;;20.00;99.90;;;;;;5038736;28;20535;-69
2023/08/02 11:50:24;;;;;;;4.72;4.07;;;20.10;99.90;;;;;;5061010;28;20040;-69
2023/08/02 11:52:49;;;;;;;6.80;4.20;;;20.20;99.90;;;;;;5054124;28;20040;-69
2023/08/02 11:55:15;;;;;;;4.57;3.97;;;20.30;99.90;;;;;;5058226;28;20788;-70
2023/08/02 11:57:41;;;;;;;4.80;4.20;;;20.50;99.90;;;;;;5059763;28;20033;-70
2023/08/02 12:00:07;;;;;;;5.10;4.60;;;20.80;99.90;;;;;;5057442;28;20078;-69
2023/08/02 12:02:36;;;;;;;5.88;5.00;;;21.30;99.90;;;;;;5055252;28;20051;-69
2023/08/02 12:05:05;;;;;;;6.88;6.18;;;21.60;99.90;;;;;;5065923;28;20899;-70
2023/08/02 12:07:36;;;;;;;6.60;5.90;;;22.00;99.90;;;;;;5063251;28;20048;-71
2023/08/02 12:10:07;;;;;;;5.93;5.13;;;22.20;99.90;;;;;;5048235;28;20037;-70
2023/08/02 12:12:33;;;;;;;;;;;22.20;99.90;;;;;;5063409;28;20129;-70
2023/08/02 12:15:08;;;;;;;6.00;5.40;;;22.30;99.90;;;;;;5065568;28;19920;-70
2023/08/02 12:17:33;;;;;;;6.00;5.40;;;22.60;99.90;;;;;;5054838;28;20055;-70
2023/08/02 12:19:59;;;;;;;6.28;5.68;;;22.80;99.90;;;;;;5063726;28;20032;-71
2023/08/02 12:22:25;;;;;;;7.07;6.10;;;23.20;99.90;;;;;;5064905;28;20048;-70
2023/08/02 12:25:07;;;;;;;6.45;5.85;;;23.20;99.90;;;;;;5072412;28;20037;-70
2023/08/02 12:27:32;;;;;;;7.57;5.80;;;23.40;99.90;;;;;;5064296;28;20049;-69
2023/08/02 12:30:10;;;;;;;7.20;5.00;;;23.30;99.90;;;;;;5057707;28;20040;-70
2023/08/02 12:32:35;;;;;;;4.70;4.25;;;23.00;99.90;;;;;;5064290;28;20105;-70
2023/08/02 12:35:08;;;;;;;7.95;5.25;;;22.60;99.90;;;;;;5053794;28;20509;-70
2023/08/02 12:37:35;;;;;;;8.50;5.30;;;22.40;99.90;;;;;;5060957;28;20037;-70
2023/08/02 12:40:00;;;;;;;7.25;4.88;;;22.50;99.90;;;;;;5045497;28;20041;-70